sensor_id;sensor_type;location;lat;lon;timestamp;P1;durP1;ratioP1;P2;durP2;ratioP2
63217;SDS011;49314;48.278;16.378;2023-05-15T00:00:23;14.98;;;14.27;;
63217;SDS011;49314;48.278;16.378;2023-05-15T00:02:49;13.90;;;13.20;;
63217;SDS011;49314;48.278;16.378;2023-05-15T00:05:14;11.57;;;10.88;;
63217;SDS011;49314;48.278;16.378;2023-05-15T00:07:40;10.55;;;10.05;;
63217;SDS011;49314;48.278;16.378;2023-05-15T00:10:05;11.85;;;11.25;;
63217;SDS011;49314;48.278;16.378;2023-05-15T00:12:31;10.65;;;10.05;;
63217;SDS011;49314;48.278;16.378;2023-05-15T00:14:56;12.40;;;11.68;;
63217;SDS011;49314;48.278;16.378;2023-05-15T00:17:21;10.15;;;9.57;;
63217;SDS011;49314;48.278;16.378;2023-05-15T00:19:46;12.38;;;11.68;;
63217;SDS011;49314;48.278;16.378;2023-05-15T00:22:12;12.20;;;11.43;;
63217;SDS011;49314;48.278;16.378;2023-05-15T00:24:37;16.10;;;15.10;;
63217;SDS011;49314;48.278;16.378;2023-05-15T00:27:02;12.40;;;11.63;;
63217;SDS011;49314;48.278;16.378;2023-05-15T00:29:28;10.43;;;9.75;;
63217;SDS011;49314;48.278;16.378;2023-05-15T00:31:53;12.68;;;11.98;;
63217;SDS011;49314;48.278;16.378;2023-05-15T00:34:18;11.88;;;11.18;;
63217;SDS011;49314;48.278;16.378;2023-05-15T00:36:44;10.23;;;9.57;;
63217;SDS011;49314;48.278;16.378;2023-05-15T00:39:09;8.60;;;8.07;;
63217;SDS011;49314;48.278;16.378;2023-05-15T00:41:35;10.68;;;9.98;;
63217;SDS011;49314;48.278;16.378;2023-05-15T00:44:01;9.43;;;8.93;;
63217;SDS011;49314;48.278;16.378;2023-05-15T00:46:26;10.60;;;9.90;;
63217;SDS011;49314;48.278;16.378;2023-05-15T00:48:52;10.32;;;9.73;;
63217;SDS011;49314;48.278;16.378;2023-05-15T00:51:17;12.10;;;11.50;;
63217;SDS011;49314;48.278;16.378;2023-05-15T00:53:42;12.45;;;11.63;;
63217;SDS011;49314;48.278;16.378;2023-05-15T00:56:08;10.35;;;9.65;;
63217;SDS011;49314;48.278;16.378;2023-05-15T00:58:34;13.35;;;12.63;;
63217;SDS011;49314;48.278;16.378;2023-05-15T01:01:01;10.52;;;9.77;;
63217;SDS011;49314;48.278;16.378;2023-05-15T01:03:26;8.95;;;8.45;;
63217;SDS011;49314;48.278;16.378;2023-05-15T01:05:52;9.52;;;9.00;;
63217;SDS011;49314;48.278;16.378;2023-05-15T01:10:42;10.33;;;9.67;;
63217;SDS011;49314;48.278;16.378;2023-05-15T01:13:08;11.30;;;10.77;;
63217;SDS011;49314;48.278;16.378;2023-05-15T01:15:33;8.50;;;7.90;;
63217;SDS011;49314;48.278;16.378;2023-05-15T01:17:58;10.60;;;10.07;;
63217;SDS011;49314;48.278;16.378;2023-05-15T01:20:24;10.02;;;9.43;;
63217;SDS011;49314;48.278;16.378;2023-05-15T01:22:51;11.07;;;10.48;;
63217;SDS011;49314;48.278;16.378;2023-05-15T01:27:49;10.93;;;10.23;;
63217;SDS011;49314;48.278;16.378;2023-05-15T01:30:28;13.82;;;13.00;;
63217;SDS011;49314;48.278;16.378;2023-05-15T01:36:00;7.75;;;7.15;;
63217;SDS011;49314;48.278;16.378;2023-05-15T01:38:33;12.40;;;11.80;;
63217;SDS011;49314;48.278;16.378;2023-05-15T01:41:01;10.68;;;10.07;;
63217;SDS011;49314;48.278;16.378;2023-05-15T01:43:30;12.18;;;11.57;;
63217;SDS011;49314;48.278;16.378;2023-05-15T01:45:56;9.23;;;8.73;;
63217;SDS011;49314;48.278;16.378;2023-05-15T01:48:22;11.35;;;10.75;;
63217;SDS011;49314;48.278;16.378;2023-05-15T01:50:49;10.75;;;10.23;;
63217;SDS011;49314;48.278;16.378;2023-05-15T01:53:15;13.15;;;12.35;;
63217;SDS011;49314;48.278;16.378;2023-05-15T01:55:42;11.07;;;10.48;;
63217;SDS011;49314;48.278;16.378;2023-05-15T01:58:07;10.77;;;10.27;;
63217;SDS011;49314;48.278;16.378;2023-05-15T02:00:33;11.15;;;10.55;;
63217;SDS011;49314;48.278;16.378;2023-05-15T02:02:58;8.70;;;8.20;;
63217;SDS011;49314;48.278;16.378;2023-05-15T02:05:24;8.80;;;8.30;;
63217;SDS011;49314;48.278;16.378;2023-05-15T02:07:50;11.05;;;10.38;;
63217;SDS011;49314;48.278;16.378;2023-05-15T02:10:15;12.85;;;12.18;;
63217;SDS011;49314;48.278;16.378;2023-05-15T02:12:42;10.88;;;10.38;;
63217;SDS011;49314;48.278;16.378;2023-05-15T02:15:08;9.43;;;8.88;;
63217;SDS011;49314;48.278;16.378;2023-05-15T02:17:34;10.65;;;10.00;;
63217;SDS011;49314;48.278;16.378;2023-05-15T02:19:59;10.15;;;9.50;;
63217;SDS011;49314;48.278;16.378;2023-05-15T02:22:24;12.25;;;11.60;;
63217;SDS011;49314;48.278;16.378;2023-05-15T02:24:50;12.85;;;12.15;;
63217;SDS011;49314;48.278;16.378;2023-05-15T02:29:50;11.15;;;10.45;;
63217;SDS011;49314;48.278;16.378;2023-05-15T02:37:20;14.23;;;13.43;;
63217;SDS011;49314;48.278;16.378;2023-05-15T02:39:48;13.13;;;12.32;;
63217;SDS011;49314;48.278;16.378;2023-05-15T02:42:17;10.75;;;10.05;;
63217;SDS011;49314;48.278;16.378;2023-05-15T02:44:43;12.32;;;11.60;;
63217;SDS011;49314;48.278;16.378;2023-05-15T02:47:09;12.98;;;12.15;;
63217;SDS011;49314;48.278;16.378;2023-05-15T02:49:35;12.25;;;11.20;;
63217;SDS011;49314;48.278;16.378;2023-05-15T02:52:01;12.98;;;12.20;;
63217;SDS011;49314;48.278;16.378;2023-05-15T02:54:26;10.57;;;9.82;;
63217;SDS011;49314;48.278;16.378;2023-05-15T02:56:51;11.47;;;10.77;;
63217;SDS011;49314;48.278;16.378;2023-05-15T02:59:17;13.50;;;12.70;;
63217;SDS011;49314;48.278;16.378;2023-05-15T03:01:44;13.40;;;12.60;;
63217;SDS011;49314;48.278;16.378;2023-05-15T03:04:10;13.68;;;12.88;;
63217;SDS011;49314;48.278;16.378;2023-05-15T03:06:36;10.65;;;10.02;;
63217;SDS011;49314;48.278;16.378;2023-05-15T03:09:01;11.07;;;10.37;;
63217;SDS011;49314;48.278;16.378;2023-05-15T03:11:26;13.77;;;12.97;;
63217;SDS011;49314;48.278;16.378;2023-05-15T03:13:51;12.75;;;11.88;;
63217;SDS011;49314;48.278;16.378;2023-05-15T03:16:16;10.33;;;9.50;;
63217;SDS011;49314;48.278;16.378;2023-05-15T03:18:42;9.80;;;9.20;;
63217;SDS011;49314;48.278;16.378;2023-05-15T03:21:07;11.33;;;10.70;;
63217;SDS011;49314;48.278;16.378;2023-05-15T03:23:32;9.55;;;8.95;;
63217;SDS011;49314;48.278;16.378;2023-05-15T03:25:57;10.73;;;10.23;;
63217;SDS011;49314;48.278;16.378;2023-05-15T03:28:23;10.55;;;10.05;;
63217;SDS011;49314;48.278;16.378;2023-05-15T03:30:48;10.57;;;9.85;;
63217;SDS011;49314;48.278;16.378;2023-05-15T03:33:13;11.68;;;11.07;;
63217;SDS011;49314;48.278;16.378;2023-05-15T03:35:38;11.13;;;10.63;;
63217;SDS011;49314;48.278;16.378;2023-05-15T03:38:04;10.50;;;10.00;;
63217;SDS011;49314;48.278;16.378;2023-05-15T03:40:29;10.82;;;10.23;;
63217;SDS011;49314;48.278;16.378;2023-05-15T03:42:54;12.02;;;11.25;;
63217;SDS011;49314;48.278;16.378;2023-05-15T03:45:19;10.57;;;9.82;;
63217;SDS011;49314;48.278;16.378;2023-05-15T03:47:45;8.07;;;7.57;;
63217;SDS011;49314;48.278;16.378;2023-05-15T03:50:10;8.82;;;8.35;;
63217;SDS011;49314;48.278;16.378;2023-05-15T03:52:35;10.25;;;9.85;;
63217;SDS011;49314;48.278;16.378;2023-05-15T03:55:01;12.27;;;11.73;;
63217;SDS011;49314;48.278;16.378;2023-05-15T03:57:26;13.13;;;12.45;;
63217;SDS011;49314;48.278;16.378;2023-05-15T03:59:51;10.20;;;9.52;;
63217;SDS011;49314;48.278;16.378;2023-05-15T04:02:16;7.35;;;6.93;;
63217;SDS011;49314;48.278;16.378;2023-05-15T04:04:42;10.77;;;9.98;;
63217;SDS011;49314;48.278;16.378;2023-05-15T04:07:08;8.20;;;7.90;;
63217;SDS011;49314;48.278;16.378;2023-05-15T04:09:33;6.47;;;6.25;;
63217;SDS011;49314;48.278;16.378;2023-05-15T04:11:59;8.07;;;7.78;;
63217;SDS011;49314;48.278;16.378;2023-05-15T04:14:24;8.02;;;7.72;;
63217;SDS011;49314;48.278;16.378;2023-05-15T04:16:49;6.70;;;6.50;;
63217;SDS011;49314;48.278;16.378;2023-05-15T04:19:14;9.38;;;8.98;;
63217;SDS011;49314;48.278;16.378;2023-05-15T04:21:40;10.60;;;10.23;;
63217;SDS011;49314;48.278;16.378;2023-05-15T04:24:06;6.53;;;6.30;;
63217;SDS011;49314;48.278;16.378;2023-05-15T04:26:31;9.75;;;9.38;;
63217;SDS011;49314;48.278;16.378;2023-05-15T04:28:56;10.38;;;9.90;;
63217;SDS011;49314;48.278;16.378;2023-05-15T04:31:22;7.93;;;7.40;;
63217;SDS011;49314;48.278;16.378;2023-05-15T04:33:47;13.35;;;12.75;;
63217;SDS011;49314;48.278;16.378;2023-05-15T04:36:13;10.98;;;10.27;;
63217;SDS011;49314;48.278;16.378;2023-05-15T04:38:38;10.82;;;10.30;;
63217;SDS011;49314;48.278;16.378;2023-05-15T04:41:03;10.75;;;10.10;;
63217;SDS011;49314;48.278;16.378;2023-05-15T04:43:28;13.35;;;12.68;;
63217;SDS011;49314;48.278;16.378;2023-05-15T04:45:54;10.45;;;9.85;;
63217;SDS011;49314;48.278;16.378;2023-05-15T04:48:19;10.05;;;9.52;;
63217;SDS011;49314;48.278;16.378;2023-05-15T04:50:45;9.70;;;9.10;;
63217;SDS011;49314;48.278;16.378;2023-05-15T04:53:10;9.30;;;8.80;;
63217;SDS011;49314;48.278;16.378;2023-05-15T04:55:35;8.73;;;8.25;;
63217;SDS011;49314;48.278;16.378;2023-05-15T04:58:01;8.93;;;8.52;;
63217;SDS011;49314;48.278;16.378;2023-05-15T05:00:27;10.15;;;9.75;;
63217;SDS011;49314;48.278;16.378;2023-05-15T05:02:52;7.60;;;7.07;;
63217;SDS011;49314;48.278;16.378;2023-05-15T05:05:17;9.15;;;8.70;;
63217;SDS011;49314;48.278;16.378;2023-05-15T05:07:42;8.95;;;8.63;;
63217;SDS011;49314;48.278;16.378;2023-05-15T05:10:10;6.68;;;6.22;;
63217;SDS011;49314;48.278;16.378;2023-05-15T05:12:35;7.82;;;7.53;;
63217;SDS011;49314;48.278;16.378;2023-05-15T05:15:01;7.78;;;7.47;;
63217;SDS011;49314;48.278;16.378;2023-05-15T05:17:26;4.90;;;4.55;;
63217;SDS011;49314;48.278;16.378;2023-05-15T05:19:52;6.30;;;6.00;;
63217;SDS011;49314;48.278;16.378;2023-05-15T05:22:17;6.45;;;6.25;;
63217;SDS011;49314;48.278;16.378;2023-05-15T05:24:42;7.35;;;7.05;;
63217;SDS011;49314;48.278;16.378;2023-05-15T05:27:07;5.97;;;5.78;;
63217;SDS011;49314;48.278;16.378;2023-05-15T05:29:33;5.97;;;5.78;;
63217;SDS011;49314;48.278;16.378;2023-05-15T05:31:58;7.05;;;6.75;;
63217;SDS011;49314;48.278;16.378;2023-05-15T05:34:23;5.97;;;5.68;;
63217;SDS011;49314;48.278;16.378;2023-05-15T05:36:48;6.82;;;6.53;;
63217;SDS011;49314;48.278;16.378;2023-05-15T05:39:14;4.30;;;4.10;;
63217;SDS011;49314;48.278;16.378;2023-05-15T05:41:42;4.88;;;4.57;;
63217;SDS011;49314;48.278;16.378;2023-05-15T05:44:08;5.82;;;5.50;;
63217;SDS011;49314;48.278;16.378;2023-05-15T05:46:33;6.40;;;6.20;;
63217;SDS011;49314;48.278;16.378;2023-05-15T05:48:58;7.68;;;7.32;;
63217;SDS011;49314;48.278;16.378;2023-05-15T05:51:24;9.65;;;9.15;;
63217;SDS011;49314;48.278;16.378;2023-05-15T05:53:49;7.75;;;7.43;;
63217;SDS011;49314;48.278;16.378;2023-05-15T05:56:14;5.07;;;4.97;;
63217;SDS011;49314;48.278;16.378;2023-05-15T05:58:39;5.55;;;5.25;;
63217;SDS011;49314;48.278;16.378;2023-05-15T06:01:05;4.53;;;4.40;;
63217;SDS011;49314;48.278;16.378;2023-05-15T06:03:30;6.78;;;6.53;;
63217;SDS011;49314;48.278;16.378;2023-05-15T06:05:56;4.80;;;4.70;;
63217;SDS011;49314;48.278;16.378;2023-05-15T06:08:21;6.40;;;6.20;;
63217;SDS011;49314;48.278;16.378;2023-05-15T06:10:46;5.00;;;4.80;;
63217;SDS011;49314;48.278;16.378;2023-05-15T06:13:12;6.55;;;6.20;;
63217;SDS011;49314;48.278;16.378;2023-05-15T06:15:38;4.80;;;4.60;;
63217;SDS011;49314;48.278;16.378;2023-05-15T06:18:04;6.40;;;6.20;;
63217;SDS011;49314;48.278;16.378;2023-05-15T06:20:30;5.88;;;5.68;;
63217;SDS011;49314;48.278;16.378;2023-05-15T06:22:55;5.25;;;5.10;;
63217;SDS011;49314;48.278;16.378;2023-05-15T06:25:20;6.72;;;6.53;;
63217;SDS011;49314;48.278;16.378;2023-05-15T06:27:45;4.82;;;4.63;;
63217;SDS011;49314;48.278;16.378;2023-05-15T06:30:11;4.63;;;4.47;;
63217;SDS011;49314;48.278;16.378;2023-05-15T06:32:37;6.70;;;6.47;;
63217;SDS011;49314;48.278;16.378;2023-05-15T06:35:02;5.60;;;5.40;;
63217;SDS011;49314;48.278;16.378;2023-05-15T06:37:27;6.32;;;6.03;;
63217;SDS011;49314;48.278;16.378;2023-05-15T06:39:53;5.80;;;5.25;;
63217;SDS011;49314;48.278;16.378;2023-05-15T06:42:18;5.07;;;4.95;;
63217;SDS011;49314;48.278;16.378;2023-05-15T06:44:43;6.47;;;6.28;;
63217;SDS011;49314;48.278;16.378;2023-05-15T06:47:09;6.43;;;6.22;;
63217;SDS011;49314;48.278;16.378;2023-05-15T06:49:34;5.90;;;5.70;;
63217;SDS011;49314;48.278;16.378;2023-05-15T06:51:59;8.35;;;8.10;;
63217;SDS011;49314;48.278;16.378;2023-05-15T06:54:24;6.72;;;6.53;;
63217;SDS011;49314;48.278;16.378;2023-05-15T06:56:50;5.75;;;5.43;;
63217;SDS011;49314;48.278;16.378;2023-05-15T06:59:15;5.68;;;5.40;;
63217;SDS011;49314;48.278;16.378;2023-05-15T07:01:40;6.93;;;6.72;;
63217;SDS011;49314;48.278;16.378;2023-05-15T07:04:05;5.18;;;5.07;;
63217;SDS011;49314;48.278;16.378;2023-05-15T07:06:31;4.83;;;4.67;;
63217;SDS011;49314;48.278;16.378;2023-05-15T07:08:56;5.63;;;5.38;;
63217;SDS011;49314;48.278;16.378;2023-05-15T07:11:22;7.40;;;7.20;;
63217;SDS011;49314;48.278;16.378;2023-05-15T07:13:47;5.33;;;5.07;;
63217;SDS011;49314;48.278;16.378;2023-05-15T07:16:12;4.53;;;4.32;;
63217;SDS011;49314;48.278;16.378;2023-05-15T07:18:37;4.32;;;4.13;;
63217;SDS011;49314;48.278;16.378;2023-05-15T07:21:03;6.38;;;5.95;;
63217;SDS011;49314;48.278;16.378;2023-05-15T07:23:28;6.38;;;6.07;;
63217;SDS011;49314;48.278;16.378;2023-05-15T07:25:53;5.28;;;4.93;;
63217;SDS011;49314;48.278;16.378;2023-05-15T07:28:18;5.22;;;5.03;;
63217;SDS011;49314;48.278;16.378;2023-05-15T07:30:44;5.07;;;4.88;;
63217;SDS011;49314;48.278;16.378;2023-05-15T07:33:09;5.18;;;4.88;;
63217;SDS011;49314;48.278;16.378;2023-05-15T07:35:34;4.70;;;4.60;;
63217;SDS011;49314;48.278;16.378;2023-05-15T07:38:00;4.60;;;4.50;;
63217;SDS011;49314;48.278;16.378;2023-05-15T07:40:25;5.18;;;4.95;;
63217;SDS011;49314;48.278;16.378;2023-05-15T07:42:50;5.43;;;5.18;;
63217;SDS011;49314;48.278;16.378;2023-05-15T07:45:15;5.70;;;5.50;;
63217;SDS011;49314;48.278;16.378;2023-05-15T07:47:44;4.95;;;4.75;;
63217;SDS011;49314;48.278;16.378;2023-05-15T07:50:10;4.30;;;4.20;;
63217;SDS011;49314;48.278;16.378;2023-05-15T07:52:36;4.93;;;4.78;;
63217;SDS011;49314;48.278;16.378;2023-05-15T07:55:01;3.95;;;3.85;;
63217;SDS011;49314;48.278;16.378;2023-05-15T07:57:26;3.85;;;3.70;;
63217;SDS011;49314;48.278;16.378;2023-05-15T07:59:52;6.35;;;5.50;;
63217;SDS011;49314;48.278;16.378;2023-05-15T08:02:17;4.50;;;4.38;;
63217;SDS011;49314;48.278;16.378;2023-05-15T08:04:42;3.20;;;3.03;;
63217;SDS011;49314;48.278;16.378;2023-05-15T08:07:07;4.27;;;4.17;;
63217;SDS011;49314;48.278;16.378;2023-05-15T08:09:33;4.43;;;4.32;;
63217;SDS011;49314;48.278;16.378;2023-05-15T08:12:13;3.92;;;3.75;;
63217;SDS011;49314;48.278;16.378;2023-05-15T08:14:41;4.05;;;3.90;;
63217;SDS011;49314;48.278;16.378;2023-05-15T08:17:06;4.45;;;4.32;;
63217;SDS011;49314;48.278;16.378;2023-05-15T08:19:31;3.67;;;3.58;;
63217;SDS011;49314;48.278;16.378;2023-05-15T08:21:57;3.63;;;3.53;;
63217;SDS011;49314;48.278;16.378;2023-05-15T08:24:22;3.57;;;3.47;;
63217;SDS011;49314;48.278;16.378;2023-05-15T08:26:47;2.10;;;2.10;;
63217;SDS011;49314;48.278;16.378;2023-05-15T08:29:12;1.30;;;1.30;;
63217;SDS011;49314;48.278;16.378;2023-05-15T08:31:38;2.30;;;2.30;;
63217;SDS011;49314;48.278;16.378;2023-05-15T08:34:03;2.53;;;2.47;;
63217;SDS011;49314;48.278;16.378;2023-05-15T08:36:28;1.60;;;1.60;;
63217;SDS011;49314;48.278;16.378;2023-05-15T08:38:53;2.80;;;2.70;;
63217;SDS011;49314;48.278;16.378;2023-05-15T08:41:30;2.15;;;2.05;;
63217;SDS011;49314;48.278;16.378;2023-05-15T08:43:56;1.35;;;1.35;;
63217;SDS011;49314;48.278;16.378;2023-05-15T08:46:22;1.55;;;1.30;;
63217;SDS011;49314;48.278;16.378;2023-05-15T08:48:47;1.52;;;1.33;;
63217;SDS011;49314;48.278;16.378;2023-05-15T08:51:13;1.63;;;1.55;;
63217;SDS011;49314;48.278;16.378;2023-05-15T08:53:39;1.50;;;1.50;;
63217;SDS011;49314;48.278;16.378;2023-05-15T08:56:05;1.80;;;1.70;;
63217;SDS011;49314;48.278;16.378;2023-05-15T08:58:31;1.02;;;1.00;;
63217;SDS011;49314;48.278;16.378;2023-05-15T09:00:56;0.50;;;0.50;;
63217;SDS011;49314;48.278;16.378;2023-05-15T09:03:23;0.90;;;0.90;;
63217;SDS011;49314;48.278;16.378;2023-05-15T09:05:48;0.60;;;0.60;;
63217;SDS011;49314;48.278;16.378;2023-05-15T09:08:16;0.75;;;0.50;;
63217;SDS011;49314;48.278;16.378;2023-05-15T09:10:42;0.40;;;0.40;;
63217;SDS011;49314;48.278;16.378;2023-05-15T09:13:07;0.93;;;0.93;;
63217;SDS011;49314;48.278;16.378;2023-05-15T09:15:33;1.17;;;0.90;;
63217;SDS011;49314;48.278;16.378;2023-05-15T09:17:58;1.60;;;1.60;;
63217;SDS011;49314;48.278;16.378;2023-05-15T09:20:28;2.20;;;1.33;;
63217;SDS011;49314;48.278;16.378;2023-05-15T09:22:54;2.08;;;1.98;;
63217;SDS011;49314;48.278;16.378;2023-05-15T09:27:58;2.85;;;2.75;;
63217;SDS011;49314;48.278;16.378;2023-05-15T09:30:25;1.05;;;1.05;;
63217;SDS011;49314;48.278;16.378;2023-05-15T09:32:51;1.70;;;1.63;;
63217;SDS011;49314;48.278;16.378;2023-05-15T09:35:36;1.15;;;1.15;;
63217;SDS011;49314;48.278;16.378;2023-05-15T09:38:02;1.50;;;1.40;;
63217;SDS011;49314;48.278;16.378;2023-05-15T09:40:28;1.10;;;1.10;;
63217;SDS011;49314;48.278;16.378;2023-05-15T09:42:54;2.28;;;2.17;;
63217;SDS011;49314;48.278;16.378;2023-05-15T09:45:20;2.53;;;2.33;;
63217;SDS011;49314;48.278;16.378;2023-05-15T09:47:45;2.67;;;2.58;;
63217;SDS011;49314;48.278;16.378;2023-05-15T09:50:11;3.05;;;2.95;;
63217;SDS011;49314;48.278;16.378;2023-05-15T09:52:37;2.75;;;2.65;;
63217;SDS011;49314;48.278;16.378;2023-05-15T09:55:02;2.45;;;2.35;;
63217;SDS011;49314;48.278;16.378;2023-05-15T09:57:28;2.95;;;2.75;;
63217;SDS011;49314;48.278;16.378;2023-05-15T09:59:53;3.03;;;2.93;;
63217;SDS011;49314;48.278;16.378;2023-05-15T10:02:25;2.40;;;2.20;;
63217;SDS011;49314;48.278;16.378;2023-05-15T10:04:58;2.80;;;2.70;;
63217;SDS011;49314;48.278;16.378;2023-05-15T10:07:27;1.80;;;1.70;;
63217;SDS011;49314;48.278;16.378;2023-05-15T10:09:53;2.15;;;2.05;;
63217;SDS011;49314;48.278;16.378;2023-05-15T10:12:18;1.48;;;1.42;;
63217;SDS011;49314;48.278;16.378;2023-05-15T10:14:43;1.47;;;1.47;;
63217;SDS011;49314;48.278;16.378;2023-05-15T10:17:09;0.98;;;0.98;;
63217;SDS011;49314;48.278;16.378;2023-05-15T10:19:35;0.70;;;0.70;;
63217;SDS011;49314;48.278;16.378;2023-05-15T10:22:00;0.93;;;0.60;;
63217;SDS011;49314;48.278;16.378;2023-05-15T10:24:26;0.80;;;0.80;;
63217;SDS011;49314;48.278;16.378;2023-05-15T10:26:52;0.60;;;0.60;;
63217;SDS011;49314;48.278;16.378;2023-05-15T10:29:19;0.60;;;0.60;;
63217;SDS011;49314;48.278;16.378;2023-05-15T10:31:46;1.00;;;0.60;;
63217;SDS011;49314;48.278;16.378;2023-05-15T10:34:12;0.77;;;0.77;;
63217;SDS011;49314;48.278;16.378;2023-05-15T10:36:38;1.00;;;0.90;;
63217;SDS011;49314;48.278;16.378;2023-05-15T10:39:04;0.80;;;0.80;;
63217;SDS011;49314;48.278;16.378;2023-05-15T10:41:30;0.80;;;0.80;;
63217;SDS011;49314;48.278;16.378;2023-05-15T10:43:59;0.60;;;0.60;;
63217;SDS011;49314;48.278;16.378;2023-05-15T10:46:28;1.25;;;0.82;;
63217;SDS011;49314;48.278;16.378;2023-05-15T10:48:53;0.57;;;0.52;;
63217;SDS011;49314;48.278;16.378;2023-05-15T10:51:26;0.50;;;0.50;;
63217;SDS011;49314;48.278;16.378;2023-05-15T10:53:51;0.70;;;0.60;;
63217;SDS011;49314;48.278;16.378;2023-05-15T10:56:17;0.60;;;0.60;;
63217;SDS011;49314;48.278;16.378;2023-05-15T10:58:43;0.52;;;0.47;;
63217;SDS011;49314;48.278;16.378;2023-05-15T11:01:23;0.70;;;0.70;;
63217;SDS011;49314;48.278;16.378;2023-05-15T11:03:48;0.70;;;0.60;;
63217;SDS011;49314;48.278;16.378;2023-05-15T11:06:14;0.77;;;0.77;;
63217;SDS011;49314;48.278;16.378;2023-05-15T11:08:39;1.10;;;1.10;;
63217;SDS011;49314;48.278;16.378;2023-05-15T11:11:05;1.67;;;1.58;;
63217;SDS011;49314;48.278;16.378;2023-05-15T11:16:42;0.90;;;0.90;;
63217;SDS011;49314;48.278;16.378;2023-05-15T11:19:00;1.35;;;1.25;;
63217;SDS011;49314;48.278;16.378;2023-05-15T11:21:27;1.80;;;1.10;;
63217;SDS011;49314;48.278;16.378;2023-05-15T11:24:02;1.67;;;1.13;;
63217;SDS011;49314;48.278;16.378;2023-05-15T11:26:31;0.80;;;0.80;;
63217;SDS011;49314;48.278;16.378;2023-05-15T11:28:57;2.58;;;0.90;;
63217;SDS011;49314;48.278;16.378;2023-05-15T11:31:41;0.95;;;0.80;;
63217;SDS011;49314;48.278;16.378;2023-05-15T11:34:06;0.70;;;0.70;;
63217;SDS011;49314;48.278;16.378;2023-05-15T11:36:31;1.73;;;0.60;;
63217;SDS011;49314;48.278;16.378;2023-05-15T11:38:57;1.20;;;0.50;;
63217;SDS011;49314;48.278;16.378;2023-05-15T11:41:23;1.90;;;0.90;;
63217;SDS011;49314;48.278;16.378;2023-05-15T11:46:20;2.28;;;0.98;;
63217;SDS011;49314;48.278;16.378;2023-05-15T11:48:46;0.80;;;0.80;;
63217;SDS011;49314;48.278;16.378;2023-05-15T11:51:24;0.73;;;0.70;;
63217;SDS011;49314;48.278;16.378;2023-05-15T11:53:51;1.05;;;0.88;;
63217;SDS011;49314;48.278;16.378;2023-05-15T11:56:17;1.38;;;0.70;;
63217;SDS011;49314;48.278;16.378;2023-05-15T11:58:43;1.02;;;1.00;;
63217;SDS011;49314;48.278;16.378;2023-05-15T12:01:09;0.70;;;0.70;;
63217;SDS011;49314;48.278;16.378;2023-05-15T12:03:34;0.70;;;0.50;;
63217;SDS011;49314;48.278;16.378;2023-05-15T12:06:00;0.50;;;0.50;;
63217;SDS011;49314;48.278;16.378;2023-05-15T12:08:29;0.70;;;0.70;;
63217;SDS011;49314;48.278;16.378;2023-05-15T12:10:56;0.60;;;0.60;;
63217;SDS011;49314;48.278;16.378;2023-05-15T12:13:23;0.77;;;0.57;;
63217;SDS011;49314;48.278;16.378;2023-05-15T12:15:48;0.70;;;0.70;;
63217;SDS011;49314;48.278;16.378;2023-05-15T12:18:14;1.77;;;0.82;;
63217;SDS011;49314;48.278;16.378;2023-05-15T12:20:40;0.80;;;0.60;;
63217;SDS011;49314;48.278;16.378;2023-05-15T12:23:15;0.40;;;0.40;;
63217;SDS011;49314;48.278;16.378;2023-05-15T12:25:41;1.05;;;0.57;;
63217;SDS011;49314;48.278;16.378;2023-05-15T12:28:07;2.10;;;1.90;;
63217;SDS011;49314;48.278;16.378;2023-05-15T12:30:33;0.68;;;0.68;;
63217;SDS011;49314;48.278;16.378;2023-05-15T12:33:02;1.35;;;0.63;;
63217;SDS011;49314;48.278;16.378;2023-05-15T12:35:27;1.33;;;1.00;;
63217;SDS011;49314;48.278;16.378;2023-05-15T12:37:53;0.82;;;0.70;;
63217;SDS011;49314;48.278;16.378;2023-05-15T12:40:21;0.77;;;0.50;;
63217;SDS011;49314;48.278;16.378;2023-05-15T12:42:50;1.05;;;0.80;;
63217;SDS011;49314;48.278;16.378;2023-05-15T12:45:18;0.40;;;0.40;;
63217;SDS011;49314;48.278;16.378;2023-05-15T12:47:45;0.57;;;0.57;;
63217;SDS011;49314;48.278;16.378;2023-05-15T12:50:17;1.02;;;0.43;;
63217;SDS011;49314;48.278;16.378;2023-05-15T12:55:14;0.60;;;0.60;;
63217;SDS011;49314;48.278;16.378;2023-05-15T12:57:40;0.93;;;0.93;;
63217;SDS011;49314;48.278;16.378;2023-05-15T13:00:08;0.40;;;0.40;;
63217;SDS011;49314;48.278;16.378;2023-05-15T13:02:34;0.30;;;0.30;;
63217;SDS011;49314;48.278;16.378;2023-05-15T13:05:00;1.38;;;0.50;;
63217;SDS011;49314;48.278;16.378;2023-05-15T13:07:26;0.50;;;0.50;;
63217;SDS011;49314;48.278;16.378;2023-05-15T13:10:05;1.77;;;0.50;;
63217;SDS011;49314;48.278;16.378;2023-05-15T13:12:37;0.85;;;0.60;;
63217;SDS011;49314;48.278;16.378;2023-05-15T13:17:28;0.55;;;0.55;;
63217;SDS011;49314;48.278;16.378;2023-05-15T13:19:54;0.60;;;0.60;;
63217;SDS011;49314;48.278;16.378;2023-05-15T13:22:19;0.60;;;0.60;;
63217;SDS011;49314;48.278;16.378;2023-05-15T13:24:44;1.95;;;0.45;;
63217;SDS011;49314;48.278;16.378;2023-05-15T13:27:10;0.40;;;0.40;;
63217;SDS011;49314;48.278;16.378;2023-05-15T13:29:35;0.43;;;0.43;;
63217;SDS011;49314;48.278;16.378;2023-05-15T13:32:00;1.77;;;0.70;;
63217;SDS011;49314;48.278;16.378;2023-05-15T13:34:25;0.67;;;0.57;;
63217;SDS011;49314;48.278;16.378;2023-05-15T13:36:51;0.60;;;0.60;;
63217;SDS011;49314;48.278;16.378;2023-05-15T13:39:16;0.40;;;0.40;;
63217;SDS011;49314;48.278;16.378;2023-05-15T13:41:41;1.90;;;0.80;;
63217;SDS011;49314;48.278;16.378;2023-05-15T13:44:07;1.67;;;0.55;;
63217;SDS011;49314;48.278;16.378;2023-05-15T13:46:32;1.03;;;0.40;;
63217;SDS011;49314;48.278;16.378;2023-05-15T13:48:57;0.40;;;0.40;;
63217;SDS011;49314;48.278;16.378;2023-05-15T13:51:22;0.87;;;0.70;;
63217;SDS011;49314;48.278;16.378;2023-05-15T13:53:48;7.22;;;0.93;;
63217;SDS011;49314;48.278;16.378;2023-05-15T13:56:13;0.53;;;0.53;;
63217;SDS011;49314;48.278;16.378;2023-05-15T13:58:38;0.70;;;0.70;;
63217;SDS011;49314;48.278;16.378;2023-05-15T14:01:05;0.70;;;0.70;;
63217;SDS011;49314;48.278;16.378;2023-05-15T14:03:33;2.10;;;0.75;;
63217;SDS011;49314;48.278;16.378;2023-05-15T14:05:58;3.47;;;0.80;;
63217;SDS011;49314;48.278;16.378;2023-05-15T14:08:24;0.50;;;0.50;;
63217;SDS011;49314;48.278;16.378;2023-05-15T14:10:49;0.65;;;0.65;;
63217;SDS011;49314;48.278;16.378;2023-05-15T14:13:14;0.77;;;0.73;;
63217;SDS011;49314;48.278;16.378;2023-05-15T14:15:40;0.90;;;0.80;;
63217;SDS011;49314;48.278;16.378;2023-05-15T14:18:05;0.67;;;0.67;;
63217;SDS011;49314;48.278;16.378;2023-05-15T14:20:30;2.07;;;0.70;;
63217;SDS011;49314;48.278;16.378;2023-05-15T14:22:55;0.57;;;0.57;;
63217;SDS011;49314;48.278;16.378;2023-05-15T14:25:21;1.30;;;0.50;;
63217;SDS011;49314;48.278;16.378;2023-05-15T14:27:46;0.52;;;0.52;;
63217;SDS011;49314;48.278;16.378;2023-05-15T14:30:11;0.50;;;0.30;;
63217;SDS011;49314;48.278;16.378;2023-05-15T14:32:37;0.60;;;0.60;;
63217;SDS011;49314;48.278;16.378;2023-05-15T14:35:03;0.50;;;0.47;;
63217;SDS011;49314;48.278;16.378;2023-05-15T14:37:28;0.70;;;0.70;;
63217;SDS011;49314;48.278;16.378;2023-05-15T14:39:53;0.97;;;0.70;;
63217;SDS011;49314;48.278;16.378;2023-05-15T14:42:19;0.90;;;0.80;;
63217;SDS011;49314;48.278;16.378;2023-05-15T14:44:44;0.60;;;0.60;;
63217;SDS011;49314;48.278;16.378;2023-05-15T14:47:10;1.00;;;0.90;;
63217;SDS011;49314;48.278;16.378;2023-05-15T14:49:40;1.65;;;0.73;;